sensor_id;sensor_type;location;lat;lon;timestamp;temperature;humidity
25410;DHT22;13339;50.840;4.346;2023-04-24T00:02:11;12.40;99.90
25410;DHT22;13339;50.840;4.346;2023-04-24T00:04:38;12.30;99.90
25410;DHT22;13339;50.840;4.346;2023-04-24T00:07:07;12.30;99.90
25410;DHT22;13339;50.840;4.346;2023-04-24T00:09:33;12.30;99.90
25410;DHT22;13339;50.840;4.346;2023-04-24T00:11:59;12.20;99.90
25410;DHT22;13339;50.840;4.346;2023-04-24T00:14:25;12.20;99.90
25410;DHT22;13339;50.840;4.346;2023-04-24T00:16:50;12.20;99.90
25410;DHT22;13339;50.840;4.346;2023-04-24T00:19:17;12.20;99.90
25410;DHT22;13339;50.840;4.346;2023-04-24T00:21:43;12.30;99.90
25410;DHT22;13339;50.840;4.346;2023-04-24T00:24:09;12.30;99.90
25410;DHT22;13339;50.840;4.346;2023-04-24T00:26:35;12.30;99.90
25410;DHT22;13339;50.840;4.346;2023-04-24T00:29:00;12.30;99.90
25410;DHT22;13339;50.840;4.346;2023-04-24T00:31:26;12.30;99.90
25410;DHT22;13339;50.840;4.346;2023-04-24T00:33:52;12.30;99.90
25410;DHT22;13339;50.840;4.346;2023-04-24T00:36:18;12.30;99.90
25410;DHT22;13339;50.840;4.346;2023-04-24T00:38:45;12.20;99.90
25410;DHT22;13339;50.840;4.346;2023-04-24T00:41:11;12.30;99.90
25410;DHT22;13339;50.840;4.346;2023-04-24T00:43:37;12.30;99.90
25410;DHT22;13339;50.840;4.346;2023-04-24T00:46:03;12.10;99.90
25410;DHT22;13339;50.840;4.346;2023-04-24T00:48:29;12.20;99.90
25410;DHT22;13339;50.840;4.346;2023-04-24T00:50:56;12.20;99.90
25410;DHT22;13339;50.840;4.346;2023-04-24T00:53:22;12.20;99.90
25410;DHT22;13339;50.840;4.346;2023-04-24T00:55:48;12.30;99.90
25410;DHT22;13339;50.840;4.346;2023-04-24T00:58:14;12.20;99.90
25410;DHT22;13339;50.840;4.346;2023-04-24T01:00:40;12.30;99.90
25410;DHT22;13339;50.840;4.346;2023-04-24T01:03:06;12.30;99.90
25410;DHT22;13339;50.840;4.346;2023-04-24T01:05:33;12.10;99.90
25410;DHT22;13339;50.840;4.346;2023-04-24T01:07:59;12.10;99.90
25410;DHT22;13339;50.840;4.346;2023-04-24T01:10:26;12.00;99.90
25410;DHT22;13339;50.840;4.346;2023-04-24T01:12:53;11.90;99.90
25410;DHT22;13339;50.840;4.346;2023-04-24T01:15:19;11.90;99.90
25410;DHT22;13339;50.840;4.346;2023-04-24T01:17:44;12.00;99.90
25410;DHT22;13339;50.840;4.346;2023-04-24T01:20:10;12.10;99.90
25410;DHT22;13339;50.840;4.346;2023-04-24T01:22:36;12.10;99.90
25410;DHT22;13339;50.840;4.346;2023-04-24T01:25:02;12.00;99.90
25410;DHT22;13339;50.840;4.346;2023-04-24T01:27:28;11.90;99.90
25410;DHT22;13339;50.840;4.346;2023-04-24T01:29:54;11.90;99.90
25410;DHT22;13339;50.840;4.346;2023-04-24T01:32:20;11.80;99.90
25410;DHT22;13339;50.840;4.346;2023-04-24T01:34:46;11.90;99.90
25410;DHT22;13339;50.840;4.346;2023-04-24T01:37:12;11.70;99.90
25410;DHT22;13339;50.840;4.346;2023-04-24T01:39:38;11.60;99.90
25410;DHT22;13339;50.840;4.346;2023-04-24T01:42:04;11.60;99.90
25410;DHT22;13339;50.840;4.346;2023-04-24T01:44:31;11.60;99.90
25410;DHT22;13339;50.840;4.346;2023-04-24T01:46:58;11.70;99.90
25410;DHT22;13339;50.840;4.346;2023-04-24T01:49:23;11.80;99.90
25410;DHT22;13339;50.840;4.346;2023-04-24T01:51:49;11.80;99.90
25410;DHT22;13339;50.840;4.346;2023-04-24T01:54:15;11.80;99.90
25410;DHT22;13339;50.840;4.346;2023-04-24T01:56:41;11.80;99.90
25410;DHT22;13339;50.840;4.346;2023-04-24T01:59:11;11.90;99.90
25410;DHT22;13339;50.840;4.346;2023-04-24T02:01:37;11.70;99.90
25410;DHT22;13339;50.840;4.346;2023-04-24T02:04:04;11.70;99.90
25410;DHT22;13339;50.840;4.346;2023-04-24T02:06:30;11.70;99.90
25410;DHT22;13339;50.840;4.346;2023-04-24T02:09:00;11.80;99.90
25410;DHT22;13339;50.840;4.346;2023-04-24T02:11:25;11.70;99.90
25410;DHT22;13339;50.840;4.346;2023-04-24T02:13:52;11.70;99.90
25410;DHT22;13339;50.840;4.346;2023-04-24T02:16:18;11.70;99.90
25410;DHT22;13339;50.840;4.346;2023-04-24T02:18:44;11.70;99.90
25410;DHT22;13339;50.840;4.346;2023-04-24T02:21:10;11.70;99.90
25410;DHT22;13339;50.840;4.346;2023-04-24T02:23:36;11.70;99.90
25410;DHT22;13339;50.840;4.346;2023-04-24T02:26:01;11.80;99.90
25410;DHT22;13339;50.840;4.346;2023-04-24T02:28:27;11.80;99.90
25410;DHT22;13339;50.840;4.346;2023-04-24T02:30:53;11.80;99.90
25410;DHT22;13339;50.840;4.346;2023-04-24T02:33:19;11.80;99.90
25410;DHT22;13339;50.840;4.346;2023-04-24T02:35:45;11.60;99.90
25410;DHT22;13339;50.840;4.346;2023-04-24T02:38:10;11.60;99.90
25410;DHT22;13339;50.840;4.346;2023-04-24T02:40:36;11.60;99.90
25410;DHT22;13339;50.840;4.346;2023-04-24T02:43:02;11.60;99.90
25410;DHT22;13339;50.840;4.346;2023-04-24T02:45:27;11.60;99.90
25410;DHT22;13339;50.840;4.346;2023-04-24T02:47:53;11.60;99.90
25410;DHT22;13339;50.840;4.346;2023-04-24T02:50:19;11.60;99.90
25410;DHT22;13339;50.840;4.346;2023-04-24T02:52:44;11.70;99.90
25410;DHT22;13339;50.840;4.346;2023-04-24T02:55:10;11.70;99.90
25410;DHT22;13339;50.840;4.346;2023-04-24T02:57:36;11.70;99.90
25410;DHT22;13339;50.840;4.346;2023-04-24T03:00:02;11.70;99.90
25410;DHT22;13339;50.840;4.346;2023-04-24T03:02:28;11.70;99.90
25410;DHT22;13339;50.840;4.346;2023-04-24T03:04:54;11.60;99.90
25410;DHT22;13339;50.840;4.346;2023-04-24T03:07:20;11.60;99.90
25410;DHT22;13339;50.840;4.346;2023-04-24T03:09:46;11.60;99.90
25410;DHT22;13339;50.840;4.346;2023-04-24T03:12:12;11.60;99.90
25410;DHT22;13339;50.840;4.346;2023-04-24T03:14:38;11.70;99.90
25410;DHT22;13339;50.840;4.346;2023-04-24T03:17:04;11.60;99.90
25410;DHT22;13339;50.840;4.346;2023-04-24T03:19:29;11.60;99.90
25410;DHT22;13339;50.840;4.346;2023-04-24T03:21:55;11.50;99.90
25410;DHT22;13339;50.840;4.346;2023-04-24T03:24:21;11.50;99.90
25410;DHT22;13339;50.840;4.346;2023-04-24T03:26:46;11.60;99.90
25410;DHT22;13339;50.840;4.346;2023-04-24T03:29:12;11.60;99.90
25410;DHT22;13339;50.840;4.346;2023-04-24T03:31:37;11.60;99.90
25410;DHT22;13339;50.840;4.346;2023-04-24T03:34:03;11.60;99.90
25410;DHT22;13339;50.840;4.346;2023-04-24T03:36:29;11.60;99.90
25410;DHT22;13339;50.840;4.346;2023-04-24T03:38:55;11.60;99.90
25410;DHT22;13339;50.840;4.346;2023-04-24T03:41:20;11.60;99.90
25410;DHT22;13339;50.840;4.346;2023-04-24T03:43:47;11.70;99.90
25410;DHT22;13339;50.840;4.346;2023-04-24T03:46:13;11.70;99.90
25410;DHT22;13339;50.840;4.346;2023-04-24T03:48:39;11.70;99.90
25410;DHT22;13339;50.840;4.346;2023-04-24T03:51:05;11.70;99.90
25410;DHT22;13339;50.840;4.346;2023-04-24T03:53:30;11.60;99.90
25410;DHT22;13339;50.840;4.346;2023-04-24T03:55:56;11.60;99.90
25410;DHT22;13339;50.840;4.346;2023-04-24T03:58:22;11.70;99.90
25410;DHT22;13339;50.840;4.346;2023-04-24T04:00:47;11.70;99.90
25410;DHT22;13339;50.840;4.346;2023-04-24T04:03:13;11.70;99.90
25410;DHT22;13339;50.840;4.346;2023-04-24T04:05:40;11.80;99.90
25410;DHT22;13339;50.840;4.346;2023-04-24T04:08:06;11.80;99.90
25410;DHT22;13339;50.840;4.346;2023-04-24T04:10:31;11.90;99.90
25410;DHT22;13339;50.840;4.346;2023-04-24T04:12:57;11.90;99.90
25410;DHT22;13339;50.840;4.346;2023-04-24T04:15:22;11.90;99.90
25410;DHT22;13339;50.840;4.346;2023-04-24T04:17:48;11.90;99.90
25410;DHT22;13339;50.840;4.346;2023-04-24T04:20:14;12.00;99.90
25410;DHT22;13339;50.840;4.346;2023-04-24T04:22:39;12.10;99.90
25410;DHT22;13339;50.840;4.346;2023-04-24T04:25:05;12.10;99.90
25410;DHT22;13339;50.840;4.346;2023-04-24T04:27:32;12.00;99.90
25410;DHT22;13339;50.840;4.346;2023-04-24T04:29:58;12.00;99.90
25410;DHT22;13339;50.840;4.346;2023-04-24T04:32:28;12.00;99.90
25410;DHT22;13339;50.840;4.346;2023-04-24T04:34:53;11.90;99.90
25410;DHT22;13339;50.840;4.346;2023-04-24T04:37:19;11.80;99.90
25410;DHT22;13339;50.840;4.346;2023-04-24T04:39:45;11.80;99.90
25410;DHT22;13339;50.840;4.346;2023-04-24T04:42:10;11.90;99.90
25410;DHT22;13339;50.840;4.346;2023-04-24T04:44:36;11.90;99.90
25410;DHT22;13339;50.840;4.346;2023-04-24T04:47:02;11.80;99.90
25410;DHT22;13339;50.840;4.346;2023-04-24T04:49:31;11.90;99.90
25410;DHT22;13339;50.840;4.346;2023-04-24T04:51:57;11.90;99.90
25410;DHT22;13339;50.840;4.346;2023-04-24T04:54:22;11.90;99.90
25410;DHT22;13339;50.840;4.346;2023-04-24T04:56:50;11.70;99.90
25410;DHT22;13339;50.840;4.346;2023-04-24T04:59:16;11.60;99.90
25410;DHT22;13339;50.840;4.346;2023-04-24T05:01:41;11.60;99.90
25410;DHT22;13339;50.840;4.346;2023-04-24T05:04:07;11.70;99.90
25410;DHT22;13339;50.840;4.346;2023-04-24T05:06:33;11.70;99.90
25410;DHT22;13339;50.840;4.346;2023-04-24T05:08:59;11.60;99.90
25410;DHT22;13339;50.840;4.346;2023-04-24T05:11:24;11.70;99.90
25410;DHT22;13339;50.840;4.346;2023-04-24T05:13:50;11.60;99.90
25410;DHT22;13339;50.840;4.346;2023-04-24T05:16:15;11.60;99.90
25410;DHT22;13339;50.840;4.346;2023-04-24T05:18:41;11.50;99.90
25410;DHT22;13339;50.840;4.346;2023-04-24T05:21:07;11.40;99.90
25410;DHT22;13339;50.840;4.346;2023-04-24T05:23:32;11.40;99.90
25410;DHT22;13339;50.840;4.346;2023-04-24T05:25:58;11.50;99.90
25410;DHT22;13339;50.840;4.346;2023-04-24T05:28:23;11.50;99.90
25410;DHT22;13339;50.840;4.346;2023-04-24T05:30:54;11.40;99.90
25410;DHT22;13339;50.840;4.346;2023-04-24T05:33:19;11.50;99.90
25410;DHT22;13339;50.840;4.346;2023-04-24T05:35:45;11.50;99.90
25410;DHT22;13339;50.840;4.346;2023-04-24T05:38:12;11.40;99.90
25410;DHT22;13339;50.840;4.346;2023-04-24T05:40:38;11.50;99.90
25410;DHT22;13339;50.840;4.346;2023-04-24T05:43:04;11.50;99.90
25410;DHT22;13339;50.840;4.346;2023-04-24T05:45:30;11.60;99.90
25410;DHT22;13339;50.840;4.346;2023-04-24T05:47:56;11.70;99.90
25410;DHT22;13339;50.840;4.346;2023-04-24T05:50:21;11.60;99.90
25410;DHT22;13339;50.840;4.346;2023-04-24T05:52:47;11.60;99.90
25410;DHT22;13339;50.840;4.346;2023-04-24T05:55:13;11.60;99.90
25410;DHT22;13339;50.840;4.346;2023-04-24T05:57:39;11.60;99.90
25410;DHT22;13339;50.840;4.346;2023-04-24T06:00:05;11.60;99.90
25410;DHT22;13339;50.840;4.346;2023-04-24T06:02:31;11.70;99.90
25410;DHT22;13339;50.840;4.346;2023-04-24T06:04:58;11.70;99.90
25410;DHT22;13339;50.840;4.346;2023-04-24T06:07:25;11.60;99.90
25410;DHT22;13339;50.840;4.346;2023-04-24T06:09:52;11.60;99.90
25410;DHT22;13339;50.840;4.346;2023-04-24T06:12:17;11.50;99.90
25410;DHT22;13339;50.840;4.346;2023-04-24T06:14:43;11.60;99.90
25410;DHT22;13339;50.840;4.346;2023-04-24T06:17:09;11.50;99.90
25410;DHT22;13339;50.840;4.346;2023-04-24T06:19:34;11.60;99.90
25410;DHT22;13339;50.840;4.346;2023-04-24T06:22:00;11.60;99.90
25410;DHT22;13339;50.840;4.346;2023-04-24T06:24:29;11.60;99.90
25410;DHT22;13339;50.840;4.346;2023-04-24T06:26:54;11.60;99.90
25410;DHT22;13339;50.840;4.346;2023-04-24T06:29:22;11.60;99.90
25410;DHT22;13339;50.840;4.346;2023-04-24T06:31:47;11.50;99.90
25410;DHT22;13339;50.840;4.346;2023-04-24T06:34:13;11.60;99.90
25410;DHT22;13339;50.840;4.346;2023-04-24T06:36:39;11.60;99.90
25410;DHT22;13339;50.840;4.346;2023-04-24T06:39:05;11.60;99.90
25410;DHT22;13339;50.840;4.346;2023-04-24T06:41:30;11.70;99.90
25410;DHT22;13339;50.840;4.346;2023-04-24T06:43:56;11.80;99.90
25410;DHT22;13339;50.840;4.346;2023-04-24T06:46:22;11.90;99.90
25410;DHT22;13339;50.840;4.346;2023-04-24T06:48:49;11.70;99.90
25410;DHT22;13339;50.840;4.346;2023-04-24T06:51:16;11.60;99.90
25410;DHT22;13339;50.840;4.346;2023-04-24T06:53:43;11.70;99.90
25410;DHT22;13339;50.840;4.346;2023-04-24T06:56:09;11.80;99.90
25410;DHT22;13339;50.840;4.346;2023-04-24T06:58:34;11.90;99.90
25410;DHT22;13339;50.840;4.346;2023-04-24T07:01:00;11.90;99.90
25410;DHT22;13339;50.840;4.346;2023-04-24T07:03:26;12.00;99.90
25410;DHT22;13339;50.840;4.346;2023-04-24T07:05:51;12.10;99.90
25410;DHT22;13339;50.840;4.346;2023-04-24T07:08:18;12.10;99.90
25410;DHT22;13339;50.840;4.346;2023-04-24T07:10:45;12.10;99.90
25410;DHT22;13339;50.840;4.346;2023-04-24T07:13:11;12.20;99.90
25410;DHT22;13339;50.840;4.346;2023-04-24T07:15:37;12.20;99.90
25410;DHT22;13339;50.840;4.346;2023-04-24T07:18:02;12.20;99.90
25410;DHT22;13339;50.840;4.346;2023-04-24T07:20:28;12.10;99.90
25410;DHT22;13339;50.840;4.346;2023-04-24T07:22:53;12.00;99.90
25410;DHT22;13339;50.840;4.346;2023-04-24T07:25:19;12.10;99.90
25410;DHT22;13339;50.840;4.346;2023-04-24T07:27:45;12.10;99.90
25410;DHT22;13339;50.840;4.346;2023-04-24T07:30:11;12.30;99.90
25410;DHT22;13339;50.840;4.346;2023-04-24T07:32:37;12.40;99.90
25410;DHT22;13339;50.840;4.346;2023-04-24T07:35:03;12.50;99.90
25410;DHT22;13339;50.840;4.346;2023-04-24T07:37:28;12.60;99.90
25410;DHT22;13339;50.840;4.346;2023-04-24T07:39:54;12.60;99.90
25410;DHT22;13339;50.840;4.346;2023-04-24T07:42:20;12.70;99.90
25410;DHT22;13339;50.840;4.346;2023-04-24T07:44:46;12.80;99.90
25410;DHT22;13339;50.840;4.346;2023-04-24T07:47:13;12.70;99.90
25410;DHT22;13339;50.840;4.346;2023-04-24T07:49:41;12.70;99.90
25410;DHT22;13339;50.840;4.346;2023-04-24T07:52:07;12.70;99.90
25410;DHT22;13339;50.840;4.346;2023-04-24T07:54:32;12.70;99.90
25410;DHT22;13339;50.840;4.346;2023-04-24T07:56:58;12.70;99.90
25410;DHT22;13339;50.840;4.346;2023-04-24T07:59:24;12.80;99.90
25410;DHT22;13339;50.840;4.346;2023-04-24T08:01:49;12.80;99.90
25410;DHT22;13339;50.840;4.346;2023-04-24T08:04:15;12.90;99.90
25410;DHT22;13339;50.840;4.346;2023-04-24T08:06:41;13.00;99.90
25410;DHT22;13339;50.840;4.346;2023-04-24T08:09:07;13.20;99.90
25410;DHT22;13339;50.840;4.346;2023-04-24T08:11:32;13.10;99.90
25410;DHT22;13339;50.840;4.346;2023-04-24T08:13:58;13.10;99.90
25410;DHT22;13339;50.840;4.346;2023-04-24T08:16:24;12.80;99.90
25410;DHT22;13339;50.840;4.346;2023-04-24T08:18:50;12.70;99.90
25410;DHT22;13339;50.840;4.346;2023-04-24T08:21:16;12.80;99.90
25410;DHT22;13339;50.840;4.346;2023-04-24T08:23:45;12.90;99.90
25410;DHT22;13339;50.840;4.346;2023-04-24T08:26:11;13.00;99.90
25410;DHT22;13339;50.840;4.346;2023-04-24T08:28:37;13.00;99.90
25410;DHT22;13339;50.840;4.346;2023-04-24T08:31:03;13.00;99.90
25410;DHT22;13339;50.840;4.346;2023-04-24T08:33:29;13.10;99.90
25410;DHT22;13339;50.840;4.346;2023-04-24T08:36:02;13.20;99.90
25410;DHT22;13339;50.840;4.346;2023-04-24T08:38:28;13.20;99.90
25410;DHT22;13339;50.840;4.346;2023-04-24T08:40:54;13.20;99.90
25410;DHT22;13339;50.840;4.346;2023-04-24T08:43:25;13.20;99.90
25410;DHT22;13339;50.840;4.346;2023-04-24T08:45:52;13.30;99.90
25410;DHT22;13339;50.840;4.346;2023-04-24T08:48:18;13.40;99.90
25410;DHT22;13339;50.840;4.346;2023-04-24T08:50:44;13.40;99.90
25410;DHT22;13339;50.840;4.346;2023-04-24T08:53:11;13.50;99.90
25410;DHT22;13339;50.840;4.346;2023-04-24T08:55:37;13.40;99.90
25410;DHT22;13339;50.840;4.346;2023-04-24T08:58:04;13.50;99.90
25410;DHT22;13339;50.840;4.346;2023-04-24T09:00:30;13.50;99.90
25410;DHT22;13339;50.840;4.346;2023-04-24T09:02:56;13.50;99.90
25410;DHT22;13339;50.840;4.346;2023-04-24T09:05:23;13.50;99.90
25410;DHT22;13339;50.840;4.346;2023-04-24T09:07:55;13.50;99.90
25410;DHT22;13339;50.840;4.346;2023-04-24T09:10:25;13.60;99.90
25410;DHT22;13339;50.840;4.346;2023-04-24T09:12:51;13.80;99.90
25410;DHT22;13339;50.840;4.346;2023-04-24T09:15:19;13.90;99.90
25410;DHT22;13339;50.840;4.346;2023-04-24T09:17:46;14.10;99.90
25410;DHT22;13339;50.840;4.346;2023-04-24T09:20:12;14.10;99.90
25410;DHT22;13339;50.840;4.346;2023-04-24T09:22:38;14.10;99.90
25410;DHT22;13339;50.840;4.346;2023-04-24T09:25:08;14.20;99.90
25410;DHT22;13339;50.840;4.346;2023-04-24T09:27:34;14.00;99.90
25410;DHT22;13339;50.840;4.346;2023-04-24T09:30:01;14.00;99.90
25410;DHT22;13339;50.840;4.346;2023-04-24T09:32:27;14.00;99.90
25410;DHT22;13339;50.840;4.346;2023-04-24T09:35:14;14.00;99.90
25410;DHT22;13339;50.840;4.346;2023-04-24T09:37:45;13.90;99.90
25410;DHT22;13339;50.840;4.346;2023-04-24T09:40:18;13.80;99.90
25410;DHT22;13339;50.840;4.346;2023-04-24T09:42:55;13.90;99.90
25410;DHT22;13339;50.840;4.346;2023-04-24T09:45:22;13.90;99.90
25410;DHT22;13339;50.840;4.346;2023-04-24T09:47:53;13.90;99.90
25410;DHT22;13339;50.840;4.346;2023-04-24T09:50:21;13.90;99.90
25410;DHT22;13339;50.840;4.346;2023-04-24T09:52:56;14.00;99.90
25410;DHT22;13339;50.840;4.346;2023-04-24T09:55:22;13.80;99.90
25410;DHT22;13339;50.840;4.346;2023-04-24T10:00:25;13.90;99.90
25410;DHT22;13339;50.840;4.346;2023-04-24T10:03:02;14.00;99.90
25410;DHT22;13339;50.840;4.346;2023-04-24T10:05:30;14.10;99.90
25410;DHT22;13339;50.840;4.346;2023-04-24T10:07:58;14.10;99.90
25410;DHT22;13339;50.840;4.346;2023-04-24T10:10:23;14.10;99.90
25410;DHT22;13339;50.840;4.346;2023-04-24T10:12:51;14.10;99.90
25410;DHT22;13339;50.840;4.346;2023-04-24T10:15:17;14.00;99.90
25410;DHT22;13339;50.840;4.346;2023-04-24T10:17:48;14.10;99.90
25410;DHT22;13339;50.840;4.346;2023-04-24T10:20:18;14.00;99.90
25410;DHT22;13339;50.840;4.346;2023-04-24T10:22:48;13.90;99.90
25410;DHT22;13339;50.840;4.346;2023-04-24T10:25:16;13.80;99.90
25410;DHT22;13339;50.840;4.346;2023-04-24T10:27:45;13.80;99.90
25410;DHT22;13339;50.840;4.346;2023-04-24T10:30:12;13.70;99.90
25410;DHT22;13339;50.840;4.346;2023-04-24T10:32:38;13.60;99.90
25410;DHT22;13339;50.840;4.346;2023-04-24T10:35:05;13.50;99.90
25410;DHT22;13339;50.840;4.346;2023-04-24T10:37:36;13.60;99.90
25410;DHT22;13339;50.840;4.346;2023-04-24T10:40:02;13.70;99.90
25410;DHT22;13339;50.840;4.346;2023-04-24T10:42:28;13.80;99.90
25410;DHT22;13339;50.840;4.346;2023-04-24T10:44:54;14.00;99.90
25410;DHT22;13339;50.840;4.346;2023-04-24T10:47:21;14.30;99.90
25410;DHT22;13339;50.840;4.346;2023-04-24T10:49:50;14.40;99.90
25410;DHT22;13339;50.840;4.346;2023-04-24T10:52:17;14.60;99.90
25410;DHT22;13339;50.840;4.346;2023-04-24T10:54:47;14.80;99.90
25410;DHT22;13339;50.840;4.346;2023-04-24T10:59:52;14.80;99.90
25410;DHT22;13339;50.840;4.346;2023-04-24T11:02:38;14.60;99.90
25410;DHT22;13339;50.840;4.346;2023-04-24T11:05:06;14.50;99.90
25410;DHT22;13339;50.840;4.346;2023-04-24T11:10:38;14.70;99.90
25410;DHT22;13339;50.840;4.346;2023-04-24T11:13:04;14.80;99.90
25410;DHT22;13339;50.840;4.346;2023-04-24T11:15:30;14.90;99.90
25410;DHT22;13339;50.840;4.346;2023-04-24T11:17:55;14.90;99.90
25410;DHT22;13339;50.840;4.346;2023-04-24T11:20:23;15.00;99.90
25410;DHT22;13339;50.840;4.346;2023-04-24T11:22:53;14.90;99.90
25410;DHT22;13339;50.840;4.346;2023-04-24T11:25:21;14.90;99.90
25410;DHT22;13339;50.840;4.346;2023-04-24T11:27:48;14.80;99.90
25410;DHT22;13339;50.840;4.346;2023-04-24T11:30:19;14.90;99.90
25410;DHT22;13339;50.840;4.346;2023-04-24T11:32:48;15.10;99.90
25410;DHT22;13339;50.840;4.346;2023-04-24T11:35:20;15.20;99.90
25410;DHT22;13339;50.840;4.346;2023-04-24T11:37:50;15.10;99.90
25410;DHT22;13339;50.840;4.346;2023-04-24T11:40:19;15.10;99.90
25410;DHT22;13339;50.840;4.346;2023-04-24T11:42:50;14.90;99.90
25410;DHT22;13339;50.840;4.346;2023-04-24T11:47:49;15.10;99.90
25410;DHT22;13339;50.840;4.346;2023-04-24T11:50:16;15.10;99.90
25410;DHT22;13339;50.840;4.346;2023-04-24T11:52:45;15.10;99.90
25410;DHT22;13339;50.840;4.346;2023-04-24T11:55:31;15.20;99.90
25410;DHT22;13339;50.840;4.346;2023-04-24T11:57:58;15.30;99.90
25410;DHT22;13339;50.840;4.346;2023-04-24T12:00:26;15.30;99.90
25410;DHT22;13339;50.840;4.346;2023-04-24T12:03:02;15.30;99.90
25410;DHT22;13339;50.840;4.346;2023-04-24T12:05:29;15.40;99.90
25410;DHT22;13339;50.840;4.346;2023-04-24T12:07:56;15.30;99.90
25410;DHT22;13339;50.840;4.346;2023-04-24T12:10:24;15.20;99.90
25410;DHT22;13339;50.840;4.346;2023-04-24T12:12:50;15.10;99.90
25410;DHT22;13339;50.840;4.346;2023-04-24T12:15:18;15.10;99.90
25410;DHT22;13339;50.840;4.346;2023-04-24T12:17:45;15.30;99.90
25410;DHT22;13339;50.840;4.346;2023-04-24T12:20:11;15.30;99.90
25410;DHT22;13339;50.840;4.346;2023-04-24T12:25:16;15.60;99.90
25410;DHT22;13339;50.840;4.346;2023-04-24T12:27:44;15.90;99.90
25410;DHT22;13339;50.840;4.346;2023-04-24T12:30:12;16.00;99.90
25410;DHT22;13339;50.840;4.346;2023-04-24T12:32:49;16.20;99.90
25410;DHT22;13339;50.840;4.346;2023-04-24T12:35:25;16.20;99.90
25410;DHT22;13339;50.840;4.346;2023-04-24T12:37:51;16.00;99.90
25410;DHT22;13339;50.840;4.346;2023-04-24T12:40:18;16.00;99.90
25410;DHT22;13339;50.840;4.346;2023-04-24T12:42:49;16.10;99.90
25410;DHT22;13339;50.840;4.346;2023-04-24T12:45:16;16.40;99.90
25410;DHT22;13339;50.840;4.346;2023-04-24T12:47:43;16.70;99.90
25410;DHT22;13339;50.840;4.346;2023-04-24T12:50:10;16.60;99.90
25410;DHT22;13339;50.840;4.346;2023-04-24T12:52:37;16.60;99.90
25410;DHT22;13339;50.840;4.346;2023-04-24T12:55:03;16.50;99.90
25410;DHT22;13339;50.840;4.346;2023-04-24T12:57:30;16.20;99.90
25410;DHT22;13339;50.840;4.346;2023-04-24T12:59:58;16.00;99.90
25410;DHT22;13339;50.840;4.346;2023-04-24T13:02:28;16.00;99.90
25410;DHT22;13339;50.840;4.346;2023-04-24T13:04:57;15.80;99.90
25410;DHT22;13339;50.840;4.346;2023-04-24T13:07:23;15.80;99.90
25410;DHT22;13339;50.840;4.346;2023-04-24T13:09:50;15.70;99.90
25410;DHT22;13339;50.840;4.346;2023-04-24T13:12:16;15.80;99.90
25410;DHT22;13339;50.840;4.346;2023-04-24T13:14:42;16.10;99.90
25410;DHT22;13339;50.840;4.346;2023-04-24T13:17:07;16.40;99.90
25410;DHT22;13339;50.840;4.346;2023-04-24T13:19:37;16.70;99.90
25410;DHT22;13339;50.840;4.346;2023-04-24T13:22:03;17.00;99.90
25410;DHT22;13339;50.840;4.346;2023-04-24T13:24:29;17.20;99.90
25410;DHT22;13339;50.840;4.346;2023-04-24T13:26:56;17.20;99.90
25410;DHT22;13339;50.840;4.346;2023-04-24T13:29:22;16.70;99.90
25410;DHT22;13339;50.840;4.346;2023-04-24T13:31:50;16.60;99.90
25410;DHT22;13339;50.840;4.346;2023-04-24T13:34:17;16.50;99.90
25410;DHT22;13339;50.840;4.346;2023-04-24T13:36:43;16.50;99.90
25410;DHT22;13339;50.840;4.346;2023-04-24T13:39:09;16.50;99.90
25410;DHT22;13339;50.840;4.346;2023-04-24T13:41:35;16.40;99.90
25410;DHT22;13339;50.840;4.346;2023-04-24T13:44:02;16.50;99.90
25410;DHT22;13339;50.840;4.346;2023-04-24T13:46:28;16.50;99.90
25410;DHT22;13339;50.840;4.346;2023-04-24T13:48:54;16.50;99.90
25410;DHT22;13339;50.840;4.346;2023-04-24T13:51:19;16.50;99.90
25410;DHT22;13339;50.840;4.346;2023-04-24T13:53:45;16.50;99.90
25410;DHT22;13339;50.840;4.346;2023-04-24T13:56:12;16.20;99.90
25410;DHT22;13339;50.840;4.346;2023-04-24T13:58:39;16.20;99.90
25410;DHT22;13339;50.840;4.346;2023-04-24T14:01:05;16.40;99.90
25410;DHT22;13339;50.840;4.346;2023-04-24T14:03:31;16.50;99.90
25410;DHT22;13339;50.840;4.346;2023-04-24T14:05:56;16.50;99.90
25410;DHT22;13339;50.840;4.346;2023-04-24T14:08:22;16.50;99.90
25410;DHT22;13339;50.840;4.346;2023-04-24T14:10:48;16.60;99.90
25410;DHT22;13339;50.840;4.346;2023-04-24T14:13:14;16.60;99.90
25410;DHT22;13339;50.840;4.346;2023-04-24T14:15:40;16.40;99.90
25410;DHT22;13339;50.840;4.346;2023-04-24T14:18:05;16.30;99.90
25410;DHT22;13339;50.840;4.346;2023-04-24T14:20:31;16.20;99.90
25410;DHT22;13339;50.840;4.346;2023-04-24T14:22:57;16.20;99.90
25410;DHT22;13339;50.840;4.346;2023-04-24T14:25:26;16.10;99.90
25410;DHT22;13339;50.840;4.346;2023-04-24T14:27:52;16.00;99.90
25410;DHT22;13339;50.840;4.346;2023-04-24T14:30:18;15.90;99.90
25410;DHT22;13339;50.840;4.346;2023-04-24T14:32:44;15.70;99.90
25410;DHT22;13339;50.840;4.346;2023-04-24T14:35:09;15.70;99.90
25410;DHT22;13339;50.840;4.346;2023-04-24T14:37:36;15.60;99.90
25410;DHT22;13339;50.840;4.346;2023-04-24T14:40:02;15.70;99.90
25410;DHT22;13339;50.840;4.346;2023-04-24T14:42:32;15.70;99.90
25410;DHT22;13339;50.840;4.346;2023-04-24T14:44:58;15.50;99.90
25410;DHT22;13339;50.840;4.346;2023-04-24T14:47:24;15.50;99.90
25410;DHT22;13339;50.840;4.346;2023-04-24T14:49:50;15.50;99.90
25410;DHT22;13339;50.840;4.346;2023-04-24T14:52:15;15.40;99.90
25410;DHT22;13339;50.840;4.346;2023-04-24T14:54:42;15.30;99.90
25410;DHT22;13339;50.840;4.346;2023-04-24T14:57:07;15.40;99.90
25410;DHT22;13339;50.840;4.346;2023-04-24T14:59:33;15.40;99.90
25410;DHT22;13339;50.840;4.346;2023-04-24T15:01:59;15.60;99.90
25410;DHT22;13339;50.840;4.346;2023-04-24T15:04:25;15.40;99.90
25410;DHT22;13339;50.840;4.346;2023-04-24T15:06:54;15.40;99.90
25410;DHT22;13339;50.840;4.346;2023-04-24T15:09:21;15.30;99.90
25410;DHT22;13339;50.840;4.346;2023-04-24T15:11:48;15.30;99.90
25410;DHT22;13339;50.840;4.346;2023-04-24T15:14:14;15.30;99.90
25410;DHT22;13339;50.840;4.346;2023-04-24T15:16:40;15.40;99.90
25410;DHT22;13339;50.840;4.346;2023-04-24T15:19:05;15.30;99.90
25410;DHT22;13339;50.840;4.346;2023-04-24T15:21:31;15.40;99.90
25410;DHT22;13339;50.840;4.346;2023-04-24T15:23:57;15.40;99.90
25410;DHT22;13339;50.840;4.346;2023-04-24T15:26:23;15.50;99.90
25410;DHT22;13339;50.840;4.346;2023-04-24T15:28:49;15.60;99.90
25410;DHT22;13339;50.840;4.346;2023-04-24T15:31:17;15.60;99.90
25410;DHT22;13339;50.840;4.346;2023-04-24T15:33:43;15.70;99.90
25410;DHT22;13339;50.840;4.346;2023-04-24T15:36:09;15.80;99.90
25410;DHT22;13339;50.840;4.346;2023-04-24T15:38:35;15.70;99.90
25410;DHT22;13339;50.840;4.346;2023-04-24T15:41:01;15.70;99.90